Portada
METAR-TAF:

METAR-TAF

Aeropuertos :

Aeropuerto de Sachs Harbour

Sachs Harbour, Territorios del Noroeste, Canadá

latitud: 72-00N, longitud: 125-17W, altitud: 86 m

Observación

El informe se hizo hace 4 horas y 30 minutos, a las 23:00 UTC
Viento calma
Temperatura -3°C
Humedad 100%
Presión 1017 hPa
Visibilidad: 2.4 km
Cielo nuboso a una altura de 200 ft
poca nieve, neblina

METAR: CYSY 022300Z 00000KT 1 1/2SM -SN BR BKN002 M03/M03 A3003 RMK SC7 LAST STFD OBS/NEXT 031300Z SLP178

Hora: 21:30 (03:30 UTC)

Pronóstico

El informe se hizo hace 8 horas y 0 minutos, a las 19:30 UTC
Pronóstico válido del 02 a las 19 UTC al 02 a las 23 UTC
Viento 3 kt con dirección variable
Visibilidad: 10 km
Nubes dispersas a una altura de 500 ft
Temporalmente
del 02 a las 19 UTC al 02 a las 23 UTC
Visibilidad: 3.2 km
Cielo nuboso a una altura de 500 ft
neblina

TAF: CYSY 021930Z 0219/0223 VRB03KT P6SM SCT005 TEMPO 0219/0223 2SM BR BKN005 RMK NXT FCST WILL BE ISSUED AT 031445Z

Observaciones y pronósticos meteorológicos de más de 4000 aeropuertos (mensajes METAR y TAF).

Los puntos amarillos y rojos representan las estaciones disponibles.

Ponga el ratón en el punto deseado para ver el nombre de la estación.

Haga clic para ver las observaciones y los pronósticos meteorológicos.

Para cambiar el mapa : haga clic en los botones verdes con una cruz de color negro para hacer un zoom, en el botón verde con un guión para alejar o en las flechas verdes para mapas adyacentes.


METAR-TAF: